Time;durP1;ratioP1;P1;durP2;ratioP2;P2;SDS_P1;SDS_P2;PMS_P1;PMS_P2;Temp;Humidity;BMP_temperature;BMP_pressure;BME280_temperature;BME280_humidity;BME280_pressure;Samples;Min_cycle;Max_cycle;Signal;HPM_P1;HPM_P2
2022/08/03 00:01:40;;;;;;;3.27;2.37;;;19.70;99.90;;;;;;5011427;28;21010;-82
2022/08/03 00:04:06;;;;;;;3.40;2.40;;;19.70;99.90;;;;;;4976886;28;20989;-81
2022/08/03 00:06:32;;;;;;;5.60;2.83;;;19.70;99.90;;;;;;5010400;28;20933;-82
2022/08/03 00:08:58;;;;;;;2.83;2.53;;;19.70;99.90;;;;;;5010353;28;20440;-82
2022/08/03 00:11:24;;;;;;;2.77;2.27;;;19.60;99.90;;;;;;4976226;28;20187;-82
2022/08/03 00:13:49;;;;;;;3.30;2.43;;;19.50;99.90;;;;;;4976054;28;20196;-82
2022/08/03 00:16:15;;;;;;;4.40;2.70;;;19.40;99.90;;;;;;5010070;28;20196;-82
2022/08/03 00:18:41;;;;;;;3.90;2.40;;;19.40;99.90;;;;;;5009933;28;20207;-82
2022/08/03 00:21:06;;;;;;;4.00;2.50;;;19.40;99.90;;;;;;5009835;28;20205;-82
2022/08/03 00:23:33;;;;;;;3.60;2.50;;;19.50;99.90;;;;;;4991964;28;20189;-82
2022/08/03 00:25:58;;;;;;;2.40;1.83;;;19.50;99.90;;;;;;4991926;28;20777;-81
2022/08/03 00:28:24;;;;;;;2.10;2.00;;;19.60;99.90;;;;;;4975976;28;20453;-80
2022/08/03 00:30:50;;;;;;;3.10;2.50;;;19.60;99.90;;;;;;4975904;28;20186;-80
2022/08/03 00:33:15;;;;;;;3.00;2.00;;;19.60;99.90;;;;;;4993579;28;20184;-81
2022/08/03 00:35:41;;;;;;;3.60;2.57;;;19.50;99.90;;;;;;5013612;28;20180;-82
2022/08/03 00:38:07;;;;;;;5.93;2.67;;;19.40;99.90;;;;;;4979859;28;20428;-82
2022/08/03 00:40:33;;;;;;;2.60;2.37;;;19.40;99.90;;;;;;4995784;28;20431;-82
2022/08/03 00:43:01;;;;;;;2.83;2.40;;;19.40;99.90;;;;;;4995077;28;20225;-81
2022/08/03 00:45:29;;;;;;;5.70;2.33;;;19.40;99.90;;;;;;4995221;28;21278;-81
2022/08/03 00:47:55;;;;;;;2.17;2.07;;;19.30;99.90;;;;;;4995204;28;20427;-82
2022/08/03 00:50:23;;;;;;;5.03;2.87;;;19.30;99.90;;;;;;4995174;28;20444;-81
2022/08/03 00:52:54;;;;;;;2.43;2.23;;;19.30;99.90;;;;;;4978711;28;20434;-81
2022/08/03 00:55:20;;;;;;;3.20;2.30;;;19.20;99.90;;;;;;4979379;28;20428;-81
2022/08/03 00:57:46;;;;;;;2.50;2.30;;;19.20;99.90;;;;;;5014711;28;20421;-81
2022/08/03 01:00:14;;;;;;;3.30;2.67;;;19.20;99.90;;;;;;4995145;28;20443;-81
2022/08/03 01:02:40;;;;;;;2.53;2.20;;;19.20;99.90;;;;;;4994868;28;20494;-80
2022/08/03 01:05:07;;;;;;;2.90;2.70;;;19.10;99.90;;;;;;4995080;28;20446;-78
2022/08/03 01:07:49;;;;;;;3.03;2.37;;;19.10;99.90;;;;;;4995278;28;20430;-78
2022/08/03 01:10:36;;;;;;;3.07;2.47;;;19.10;99.90;;;;;;5012723;28;20958;-78
2022/08/03 01:13:04;;;;;;;3.73;2.60;;;19.00;99.90;;;;;;4994783;28;20506;-78
2022/08/03 01:15:39;;;;;;;3.30;2.33;;;19.00;99.90;;;;;;4994078;28;20948;-78
2022/08/03 01:18:21;;;;;;;2.60;2.40;;;19.00;99.90;;;;;;4994338;28;20465;-78
2022/08/03 01:20:50;;;;;;;8.67;3.10;;;18.90;99.90;;;;;;5012191;28;20430;-79
2022/08/03 01:23:19;;;;;;;4.13;3.17;;;18.70;99.90;;;;;;4995288;28;20467;-78
2022/08/03 01:26:03;;;;;;;3.70;2.80;;;18.70;99.90;;;;;;5012497;28;20999;-78
2022/08/03 01:28:43;;;;;;;3.53;2.33;;;18.70;99.90;;;;;;4994549;28;20486;-80
2022/08/03 01:31:12;;;;;;;4.00;2.87;;;18.70;99.90;;;;;;5011938;28;20424;-79
2022/08/03 01:33:51;;;;;;;2.70;2.37;;;18.60;99.90;;;;;;5011875;28;20420;-80
2022/08/03 01:36:23;;;;;;;2.60;2.40;;;18.60;99.90;;;;;;5012048;28;20397;-79
2022/08/03 01:38:57;;;;;;;3.93;2.50;;;18.60;99.90;;;;;;5011968;28;20428;-79
2022/08/03 01:41:32;;;;;;;2.70;2.50;;;18.60;99.90;;;;;;4994390;28;20466;-80
2022/08/03 01:44:01;;;;;;;2.37;2.17;;;18.70;99.90;;;;;;4994922;28;20519;-80
2022/08/03 01:46:28;;;;;;;11.13;2.60;;;18.60;99.90;;;;;;4995155;28;20428;-80
2022/08/03 01:48:54;;;;;;;3.43;2.10;;;18.60;99.90;;;;;;4979892;28;20511;-80
2022/08/03 01:51:21;;;;;;;3.50;2.50;;;18.50;99.90;;;;;;4979783;28;21110;-80
2022/08/03 01:53:53;;;;;;;4.27;2.30;;;18.40;99.90;;;;;;4980014;28;20770;-80
2022/08/03 01:56:22;;;;;;;5.33;3.20;;;18.40;99.90;;;;;;4979828;28;20988;-80
2022/08/03 01:58:50;;;;;;;5.57;3.53;;;18.40;99.90;;;;;;4994757;28;20444;-80
2022/08/03 02:01:16;;;;;;;4.23;3.30;;;18.40;99.90;;;;;;4995159;28;20989;-80
2022/08/03 02:03:44;;;;;;;3.60;3.30;;;18.40;99.90;;;;;;4978854;28;20455;-80
2022/08/03 02:06:12;;;;;;;3.30;3.00;;;18.40;99.90;;;;;;5012637;28;20440;-80
2022/08/03 02:08:40;;;;;;;4.70;2.77;;;18.40;99.90;;;;;;4994756;28;20486;-80
2022/08/03 02:11:06;;;;;;;3.50;2.80;;;18.40;99.90;;;;;;4995594;28;20432;-80
2022/08/03 02:13:34;;;;;;;3.33;3.03;;;18.30;99.90;;;;;;5011979;28;20490;-80
2022/08/03 02:16:02;;;;;;;3.07;2.47;;;18.30;99.90;;;;;;5011123;28;20983;-80
2022/08/03 02:18:30;;;;;;;2.80;2.60;;;18.30;99.90;;;;;;5010860;28;20451;-80
2022/08/03 02:20:57;;;;;;;3.27;2.97;;;18.30;99.90;;;;;;4977308;28;20455;-80
2022/08/03 02:23:23;;;;;;;3.20;2.90;;;18.30;99.90;;;;;;4976959;28;20439;-80
2022/08/03 02:25:56;;;;;;;5.17;2.70;;;18.30;99.90;;;;;;4976717;28;20429;-78
2022/08/03 02:28:29;;;;;;;3.00;2.10;;;18.20;99.90;;;;;;5010377;28;20249;-77
2022/08/03 02:30:55;;;;;;;6.87;2.57;;;18.30;99.90;;;;;;4992625;28;20514;-78
2022/08/03 02:33:27;;;;;;;2.90;2.70;;;18.30;99.90;;;;;;5010338;28;20423;-78
2022/08/03 02:35:53;;;;;;;3.27;2.53;;;18.30;99.90;;;;;;5010473;28;20802;-78
2022/08/03 02:38:22;;;;;;;4.43;2.60;;;18.20;99.90;;;;;;4992310;28;20436;-79
2022/08/03 02:40:51;;;;;;;3.03;2.80;;;18.20;99.90;;;;;;4992209;28;20408;-78
2022/08/03 02:43:20;;;;;;;7.00;2.77;;;18.30;99.90;;;;;;4976367;28;20807;-77
2022/08/03 02:45:48;;;;;;;2.53;2.33;;;18.30;99.90;;;;;;4976083;28;20431;-80
2022/08/03 02:48:22;;;;;;;6.90;1.97;;;18.30;99.90;;;;;;4991931;28;20475;-80
2022/08/03 02:50:51;;;;;;;4.50;2.20;;;18.20;99.90;;;;;;4976312;28;20458;-80
2022/08/03 02:53:20;;;;;;;2.83;2.63;;;18.20;99.90;;;;;;4976130;28;20574;-78
2022/08/03 02:55:47;;;;;;;2.50;2.07;;;18.10;99.90;;;;;;4991934;28;20507;-79
2022/08/03 02:58:13;;;;;;;2.00;1.90;;;18.10;99.90;;;;;;4991895;28;20437;-79
2022/08/03 03:00:40;;;;;;;1.83;1.73;;;18.00;99.90;;;;;;4991721;28;20902;-77
2022/08/03 03:03:06;;;;;;;2.20;1.97;;;18.00;99.90;;;;;;5009213;28;20577;-77
2022/08/03 03:05:35;;;;;;;2.80;2.50;;;18.00;99.90;;;;;;4991320;28;20474;-77
2022/08/03 03:08:01;;;;;;;3.07;2.73;;;17.90;99.90;;;;;;4975731;28;20439;-80
2022/08/03 03:10:27;;;;;;;5.00;3.40;;;17.90;99.90;;;;;;4991611;28;20443;-78
2022/08/03 03:12:56;;;;;;;2.80;2.60;;;17.90;99.90;;;;;;5009412;28;20431;-78
2022/08/03 03:15:26;;;;;;;4.40;3.50;;;17.90;99.90;;;;;;4975549;28;20493;-79
2022/08/03 03:17:53;;;;;;;3.60;2.50;;;17.90;99.90;;;;;;4991326;28;20427;-77
2022/08/03 03:20:20;;;;;;;2.60;2.40;;;17.80;99.90;;;;;;5009092;28;20446;-79
2022/08/03 03:22:48;;;;;;;4.70;2.83;;;17.80;99.90;;;;;;4975398;28;20477;-79
2022/08/03 03:25:15;;;;;;;2.17;2.00;;;17.80;99.90;;;;;;4991623;28;20419;-79
2022/08/03 03:27:41;;;;;;;2.33;2.20;;;17.80;99.90;;;;;;4992681;28;20490;-79
2022/08/03 03:30:07;;;;;;;7.77;3.07;;;17.70;99.90;;;;;;4976508;28;20809;-79
2022/08/03 03:32:35;;;;;;;4.77;2.30;;;17.70;99.90;;;;;;4976173;28;20551;-79
2022/08/03 03:35:03;;;;;;;4.23;2.27;;;17.70;99.90;;;;;;4992655;28;20849;-80
2022/08/03 03:37:29;;;;;;;2.87;2.63;;;17.60;99.90;;;;;;4976258;28;20427;-79
2022/08/03 03:39:55;;;;;;;2.90;2.70;;;17.40;99.90;;;;;;4992146;28;20837;-80
2022/08/03 03:42:21;;;;;;;2.70;2.50;;;17.50;99.90;;;;;;4975912;28;20225;-80
2022/08/03 03:44:47;;;;;;;3.63;2.10;;;17.40;99.90;;;;;;5010355;28;20423;-76
2022/08/03 03:47:13;;;;;;;2.67;2.33;;;17.50;99.90;;;;;;4974593;28;20430;-76
2022/08/03 03:49:39;;;;;;;2.63;2.07;;;17.50;99.90;;;;;;5008893;28;20222;-76
2022/08/03 03:52:05;;;;;;;3.30;2.70;;;17.50;99.90;;;;;;5007587;28;20981;-75
2022/08/03 03:54:41;;;;;;;3.50;3.20;;;17.50;99.90;;;;;;4989437;28;20427;-75
2022/08/03 03:57:07;;;;;;;4.30;3.80;;;17.50;99.90;;;;;;5007127;28;20453;-75
2022/08/03 03:59:36;;;;;;;4.90;3.60;;;17.50;99.90;;;;;;5007024;28;20450;-75
2022/08/03 04:02:02;;;;;;;4.80;4.30;;;17.50;99.90;;;;;;5006961;28;20461;-76
2022/08/03 04:12:42;;;;;;;3.97;3.60;;;17.50;99.90;;;;;;4995968;28;20441;-77
2022/08/03 04:15:09;;;;;;;4.53;3.50;;;17.50;99.90;;;;;;4993057;28;20423;-77
2022/08/03 04:17:35;;;;;;;8.00;6.00;;;17.50;99.90;;;;;;4993169;28;20414;-76
2022/08/03 04:20:02;;;;;;;3.60;3.10;;;17.50;99.90;;;;;;4992814;28;20478;-77
2022/08/03 04:22:31;;;;;;;4.47;3.80;;;17.50;99.90;;;;;;4976795;28;20562;-77
2022/08/03 04:25:08;;;;;;;4.47;4.00;;;17.50;99.90;;;;;;4992889;28;20428;-77
2022/08/03 04:27:37;;;;;;;4.23;3.30;;;17.50;99.90;;;;;;4993006;28;20808;-77
2022/08/03 04:30:05;;;;;;;4.97;3.67;;;17.50;99.90;;;;;;4992941;28;20835;-77
2022/08/03 04:32:32;;;;;;;4.93;3.30;;;17.40;99.90;;;;;;5010769;28;20434;-77
2022/08/03 04:34:58;;;;;;;5.93;3.47;;;17.40;99.90;;;;;;4993077;28;20621;-77
2022/08/03 04:37:39;;;;;;;4.17;3.20;;;17.40;99.90;;;;;;4993267;28;20432;-77
2022/08/03 04:40:34;;;;;;;2.73;2.53;;;17.40;99.90;;;;;;5011050;28;20516;-77
2022/08/03 04:43:01;;;;;;;3.17;2.87;;;17.50;99.90;;;;;;4992043;28;21130;-77
2022/08/03 04:45:29;;;;;;;3.50;3.20;;;17.40;99.90;;;;;;4993359;28;20422;-77
2022/08/03 04:47:56;;;;;;;2.83;2.50;;;17.40;99.90;;;;;;4976842;28;21032;-77
2022/08/03 04:50:22;;;;;;;3.50;2.80;;;17.40;99.90;;;;;;4992912;28;20982;-76
2022/08/03 04:52:48;;;;;;;8.30;2.40;;;17.40;99.90;;;;;;5010828;28;20431;-76
2022/08/03 04:55:27;;;;;;;3.90;3.07;;;17.40;99.90;;;;;;5010707;28;20424;-76
2022/08/03 04:57:53;;;;;;;6.67;3.17;;;17.50;99.90;;;;;;4993201;28;20185;-76
2022/08/03 05:00:19;;;;;;;3.47;3.17;;;17.40;99.90;;;;;;5010691;28;20499;-76
2022/08/03 05:02:44;;;;;;;5.33;3.43;;;17.50;99.90;;;;;;4992747;28;20417;-76
2022/08/03 05:05:10;;;;;;;4.23;3.67;;;17.60;99.90;;;;;;4992934;28;20559;-76
2022/08/03 05:07:36;;;;;;;5.90;3.30;;;17.70;99.90;;;;;;4976737;28;20188;-77
2022/08/03 05:10:07;;;;;;;3.50;3.07;;;17.90;99.90;;;;;;4992929;28;21022;-76
2022/08/03 05:12:33;;;;;;;4.80;2.67;;;18.00;99.90;;;;;;4993275;28;20953;-76
2022/08/03 05:15:00;;;;;;;3.07;2.87;;;18.00;99.90;;;;;;5011604;28;20447;-77
2022/08/03 05:17:25;;;;;;;5.10;2.87;;;18.10;99.90;;;;;;5010810;28;20177;-76
2022/08/03 05:19:51;;;;;;;4.03;3.30;;;18.20;99.90;;;;;;4991786;28;20486;-76
2022/08/03 05:22:17;;;;;;;3.43;3.13;;;18.30;99.90;;;;;;5010413;28;20217;-77
2022/08/03 05:24:42;;;;;;;3.87;2.87;;;18.40;99.90;;;;;;5010516;28;20184;-77
2022/08/03 05:27:08;;;;;;;2.97;2.77;;;18.50;99.90;;;;;;5010358;28;20654;-77
2022/08/03 05:29:33;;;;;;;4.57;2.77;;;18.60;99.90;;;;;;5010384;28;20204;-77
2022/08/03 05:32:00;;;;;;;4.50;2.60;;;18.80;99.90;;;;;;5010158;28;20267;-77
2022/08/03 05:34:26;;;;;;;4.70;3.20;;;19.00;99.90;;;;;;4976405;28;20192;-77
2022/08/03 05:36:52;;;;;;;16.33;12.27;;;19.00;99.90;;;;;;4992205;28;20995;-77
2022/08/03 05:39:17;;;;;;;7.10;3.80;;;19.10;99.90;;;;;;4992411;28;20218;-77
2022/08/03 05:41:43;;;;;;;5.97;3.50;;;19.10;99.90;;;;;;4992373;28;20298;-77
2022/08/03 05:44:08;;;;;;;5.70;3.20;;;19.30;99.90;;;;;;4992574;28;20204;-77
2022/08/03 05:46:34;;;;;;;4.60;3.67;;;19.30;99.90;;;;;;4992438;28;20231;-77
2022/08/03 05:49:00;;;;;;;5.97;4.23;;;19.40;99.90;;;;;;5010051;28;20221;-77
2022/08/03 05:51:26;;;;;;;3.83;3.40;;;19.50;99.90;;;;;;4992364;28;20275;-77
2022/08/03 05:53:52;;;;;;;7.03;3.70;;;19.60;99.90;;;;;;5011239;28;20210;-78
2022/08/03 05:56:22;;;;;;;7.63;3.60;;;19.70;99.90;;;;;;5002905;28;20769;-78
2022/08/03 05:58:48;;;;;;;5.20;3.47;;;19.80;99.90;;;;;;5031060;28;20197;-77
2022/08/03 06:01:15;;;;;;;4.33;3.60;;;19.90;99.90;;;;;;5012948;28;20550;-77
2022/08/03 06:03:41;;;;;;;4.00;3.60;;;20.00;99.90;;;;;;4993713;28;20775;-77
2022/08/03 06:06:06;;;;;;;3.33;3.10;;;20.20;99.90;;;;;;4993129;28;20550;-77
2022/08/03 06:08:32;;;;;;;4.10;3.40;;;20.30;99.90;;;;;;4991870;28;20702;-77
2022/08/03 06:10:58;;;;;;;4.10;2.90;;;20.50;99.90;;;;;;5009576;28;20231;-77
2022/08/03 06:13:24;;;;;;;4.90;3.50;;;20.60;99.90;;;;;;5009798;28;20459;-77
2022/08/03 06:15:49;;;;;;;3.97;3.00;;;20.80;99.90;;;;;;5009379;28;20187;-77
2022/08/03 06:18:15;;;;;;;4.33;3.30;;;20.90;99.90;;;;;;5009792;28;20725;-77
2022/08/03 06:20:41;;;;;;;4.50;4.10;;;21.00;99.90;;;;;;4991897;28;20192;-77
2022/08/03 06:23:06;;;;;;;6.00;4.57;;;21.20;99.90;;;;;;5009141;28;20585;-77
2022/08/03 06:25:32;;;;;;;4.60;3.77;;;21.30;99.90;;;;;;4990881;28;20181;-77
2022/08/03 06:27:58;;;;;;;6.10;3.87;;;21.40;99.90;;;;;;5008825;28;20185;-77
2022/08/03 06:30:24;;;;;;;4.77;4.33;;;21.50;99.90;;;;;;4990670;28;20209;-77
2022/08/03 06:32:50;;;;;;;5.30;3.60;;;21.60;99.90;;;;;;4990936;28;20437;-77
2022/08/03 06:35:15;;;;;;;4.33;3.77;;;21.60;99.90;;;;;;5008571;28;20244;-77
2022/08/03 06:37:45;;;;;;;4.40;3.40;;;21.80;99.90;;;;;;4974722;28;20270;-77
2022/08/03 06:40:12;;;;;;;4.07;3.70;;;21.80;99.90;;;;;;4990475;28;20209;-77
2022/08/03 06:42:38;;;;;;;4.00;3.70;;;22.00;99.90;;;;;;5008611;28;20480;-77
2022/08/03 06:45:05;;;;;;;3.20;2.90;;;22.10;99.90;;;;;;4990815;28;20439;-77
2022/08/03 06:47:30;;;;;;;3.67;3.40;;;22.10;99.90;;;;;;4990699;28;20224;-77
2022/08/03 06:49:56;;;;;;;3.90;3.53;;;22.20;99.90;;;;;;5008247;28;20445;-77
2022/08/03 06:52:22;;;;;;;5.67;3.20;;;22.30;99.90;;;;;;4990697;28;20212;-77
2022/08/03 06:54:47;;;;;;;4.93;3.30;;;22.30;99.90;;;;;;4974790;28;20190;-77
2022/08/03 06:57:15;;;;;;;3.20;2.90;;;22.30;99.90;;;;;;5008541;28;20210;-77
2022/08/03 06:59:41;;;;;;;3.20;3.00;;;22.40;99.90;;;;;;5009415;28;20205;-77
2022/08/03 07:02:08;;;;;;;4.97;3.00;;;22.40;99.90;;;;;;4975054;28;20484;-77
2022/08/03 07:04:34;;;;;;;3.07;2.80;;;22.50;99.90;;;;;;4992280;28;20581;-77
2022/08/03 07:06:59;;;;;;;2.70;2.50;;;22.60;99.90;;;;;;4991331;28;20433;-77
2022/08/03 07:09:25;;;;;;;4.10;3.33;;;22.70;99.90;;;;;;4991152;28;20264;-77
2022/08/03 07:11:51;;;;;;;3.73;3.30;;;22.80;99.90;;;;;;4974468;28;20202;-77
2022/08/03 07:14:17;;;;;;;6.47;3.10;;;22.80;99.90;;;;;;4975544;28;20280;-78
2022/08/03 07:16:42;;;;;;;3.40;3.10;;;22.80;99.90;;;;;;5002940;28;20558;-79
2022/08/03 07:19:08;;;;;;;3.60;2.80;;;22.90;99.90;;;;;;5022855;28;20268;-80
2022/08/03 07:21:34;;;;;;;5.90;2.37;;;22.90;99.90;;;;;;4987955;28;20287;-80
2022/08/03 07:23:59;;;;;;;3.27;2.90;;;22.90;99.90;;;;;;5000894;28;20206;-79
2022/08/03 07:26:25;;;;;;;4.90;2.80;;;22.90;99.90;;;;;;5000107;28;20194;-79
2022/08/03 07:28:50;;;;;;;3.60;2.93;;;23.00;99.90;;;;;;4983990;28;20209;-79
2022/08/03 07:31:16;;;;;;;8.60;3.20;;;23.00;99.90;;;;;;5000357;28;20196;-79
2022/08/03 07:33:45;;;;;;;5.37;4.27;;;23.20;99.90;;;;;;5018725;28;20187;-79
2022/08/03 07:36:10;;;;;;;5.50;3.00;;;23.20;99.90;;;;;;4985149;28;20190;-79
2022/08/03 07:38:36;;;;;;;6.33;2.90;;;23.10;99.90;;;;;;4999826;28;20471;-79
2022/08/03 07:41:02;;;;;;;6.40;3.30;;;23.20;99.90;;;;;;4997049;28;20190;-79
2022/08/03 07:43:28;;;;;;;4.40;2.90;;;23.10;99.90;;;;;;4982278;28;20231;-79
2022/08/03 07:45:53;;;;;;;4.87;2.80;;;23.20;99.90;;;;;;5018623;28;20990;-79
2022/08/03 07:48:19;;;;;;;2.90;2.40;;;23.30;99.90;;;;;;4981946;28;20193;-79
2022/08/03 07:50:45;;;;;;;2.60;2.40;;;23.30;99.90;;;;;;4980991;28;20211;-78
2022/08/03 07:53:11;;;;;;;3.70;2.60;;;23.40;99.90;;;;;;4996981;28;20285;-79
2022/08/03 07:55:36;;;;;;;4.30;2.67;;;23.40;99.90;;;;;;4996547;28;20189;-79
2022/08/03 07:58:08;;;;;;;3.40;2.33;;;23.40;99.90;;;;;;4997207;28;20961;-79
2022/08/03 08:00:34;;;;;;;8.20;3.30;;;23.50;99.90;;;;;;5014063;28;20292;-79
2022/08/03 08:03:01;;;;;;;3.60;2.20;;;23.50;99.90;;;;;;4997126;28;20465;-79
2022/08/03 08:05:27;;;;;;;3.10;2.43;;;23.60;99.90;;;;;;5014381;28;20435;-78
2022/08/03 08:07:53;;;;;;;3.23;1.97;;;23.60;99.90;;;;;;4980218;28;20437;-79
2022/08/03 08:10:19;;;;;;;3.60;2.40;;;23.70;99.90;;;;;;5014256;28;20443;-79
2022/08/03 08:12:45;;;;;;;3.57;2.00;;;23.70;99.90;;;;;;4980185;28;20448;-79
2022/08/03 08:15:10;;;;;;;4.10;2.03;;;23.80;99.90;;;;;;4996363;28;20433;-78
2022/08/03 08:17:50;;;;;;;4.60;2.17;;;23.90;99.90;;;;;;4996202;28;20488;-79
2022/08/03 08:20:21;;;;;;;3.63;2.20;;;24.00;99.90;;;;;;4996448;28;20682;-79
2022/08/03 08:22:47;;;;;;;2.40;2.20;;;24.10;99.90;;;;;;5014029;28;20481;-79
2022/08/03 08:25:13;;;;;;;2.20;1.97;;;24.30;99.90;;;;;;4980006;28;20438;-79
2022/08/03 08:27:46;;;;;;;2.50;2.30;;;24.40;99.90;;;;;;5013753;28;20266;-79
2022/08/03 08:30:13;;;;;;;2.00;1.90;;;24.50;99.90;;;;;;4996069;28;20234;-79
2022/08/03 08:32:40;;;;;;;2.23;2.10;;;24.60;99.90;;;;;;4996006;28;20504;-78
2022/08/03 08:35:07;;;;;;;4.10;2.73;;;24.70;99.90;;;;;;4995437;28;20462;-79
2022/08/03 08:37:33;;;;;;;2.17;1.93;;;24.80;99.90;;;;;;5014143;28;20518;-78
2022/08/03 08:39:59;;;;;;;2.00;1.90;;;24.90;99.90;;;;;;5012839;28;20534;-78
2022/08/03 08:42:25;;;;;;;3.77;2.03;;;25.10;99.90;;;;;;4994884;28;20470;-78
2022/08/03 08:44:51;;;;;;;4.13;2.30;;;25.30;99.90;;;;;;4994215;28;20435;-78
2022/08/03 08:47:24;;;;;;;2.07;1.80;;;25.40;99.90;;;;;;5012637;28;20245;-78
2022/08/03 08:49:54;;;;;;;2.23;2.03;;;25.50;99.90;;;;;;4993504;28;20510;-78
2022/08/03 08:52:26;;;;;;;5.10;2.10;;;25.70;99.90;;;;;;4993667;28;20440;-78
2022/08/03 08:54:58;;;;;;;2.87;2.00;;;25.90;99.90;;;;;;5011500;28;20451;-78
2022/08/03 08:57:30;;;;;;;4.90;2.43;;;26.00;99.90;;;;;;5016247;28;20780;-79
2022/08/03 08:59:56;;;;;;;4.27;2.63;;;26.20;99.90;;;;;;4998038;28;20543;-79
2022/08/03 09:02:23;;;;;;;4.07;2.07;;;26.30;99.90;;;;;;4997729;28;20541;-79
2022/08/03 09:04:50;;;;;;;4.07;2.10;;;26.50;99.90;;;;;;5015682;28;20440;-79
2022/08/03 09:07:16;;;;;;;2.23;2.07;;;26.70;99.90;;;;;;4998177;28;20463;-78
2022/08/03 09:09:42;;;;;;;2.67;2.47;;;26.80;99.90;;;;;;5015157;28;20864;-78
2022/08/03 09:12:08;;;;;;;6.63;2.87;;;26.90;99.90;;;;;;4997283;28;20519;-79
2022/08/03 09:14:34;;;;;;;3.40;2.40;;;27.00;99.90;;;;;;4999243;28;20189;-79
2022/08/03 09:17:01;;;;;;;4.00;2.43;;;27.20;99.90;;;;;;5016430;28;20470;-79
2022/08/03 09:19:29;;;;;;;2.57;2.33;;;27.40;99.90;;;;;;5000112;28;20213;-78
2022/08/03 09:22:20;;;;;;;3.10;2.17;;;27.50;99.90;;;;;;4999251;28;20879;-79
2022/08/03 09:24:59;;;;;;;3.10;2.07;;;27.80;99.90;;;;;;5012975;28;20440;-79
2022/08/03 09:27:25;;;;;;;3.43;2.40;;;27.90;99.90;;;;;;4983313;28;20470;-79
2022/08/03 09:29:52;;;;;;;2.20;2.10;;;28.10;99.90;;;;;;4999614;28;20452;-79
2022/08/03 09:32:20;;;;;;;2.37;2.20;;;28.20;99.90;;;;;;4998381;28;20199;-79
2022/08/03 09:34:47;;;;;;;2.17;2.03;;;28.30;99.90;;;;;;4998936;28;20482;-79
2022/08/03 09:37:17;;;;;;;4.30;2.50;;;28.40;99.90;;;;;;5016548;28;20427;-78
2022/08/03 09:39:44;;;;;;;2.43;1.87;;;28.50;99.90;;;;;;4999881;28;20448;-79
2022/08/03 09:42:21;;;;;;;5.20;2.30;;;28.70;99.90;;;;;;5017251;28;21330;-79
2022/08/03 09:44:48;;;;;;;3.43;2.40;;;28.90;99.90;;;;;;5018105;28;20435;-79
2022/08/03 09:47:29;;;;;;;2.40;2.20;;;29.10;99.80;;;;;;5016080;28;20447;-79
2022/08/03 09:50:07;;;;;;;2.33;2.13;;;29.20;99.70;;;;;;4998896;28;20442;-79
2022/08/03 09:52:38;;;;;;;2.30;2.10;;;29.30;98.80;;;;;;5017229;28;20413;-79
2022/08/03 09:55:13;;;;;;;3.70;2.07;;;29.50;98.50;;;;;;4999567;28;20450;-79
2022/08/03 09:57:45;;;;;;;2.70;2.50;;;29.60;99.30;;;;;;4983567;28;20431;-79
2022/08/03 10:00:16;;;;;;;6.80;2.27;;;29.80;97.50;;;;;;4998338;28;20460;-79
2022/08/03 10:02:43;;;;;;;3.93;2.70;;;29.90;97.30;;;;;;4997761;28;21071;-79
2022/08/03 10:05:11;;;;;;;2.40;2.00;;;30.00;97.70;;;;;;5014139;28;20440;-79
2022/08/03 10:07:50;;;;;;;3.17;2.87;;;30.00;97.20;;;;;;4997119;28;20424;-79
2022/08/03 10:10:16;;;;;;;2.30;2.10;;;30.00;96.50;;;;;;4998977;28;20432;-79
2022/08/03 10:12:43;;;;;;;2.73;2.33;;;30.10;97.70;;;;;;4982973;28;20460;-79
2022/08/03 10:15:10;;;;;;;2.57;2.33;;;30.20;96.70;;;;;;4997488;28;20431;-79
2022/08/03 10:17:36;;;;;;;4.70;2.70;;;30.40;96.60;;;;;;4998387;28;20420;-79
2022/08/03 10:20:05;;;;;;;2.60;2.40;;;30.40;95.30;;;;;;4998707;28;20474;-79
2022/08/03 10:22:35;;;;;;;5.27;2.70;;;30.50;95.60;;;;;;4998790;28;20503;-79
2022/08/03 10:25:07;;;;;;;3.10;2.80;;;30.70;96.50;;;;;;5017127;28;20423;-79
2022/08/03 10:27:38;;;;;;;3.80;2.27;;;30.80;95.40;;;;;;4999209;28;20431;-79
2022/08/03 10:30:07;;;;;;;2.90;2.10;;;30.90;94.10;;;;;;4999263;28;20476;-79
2022/08/03 10:33:03;;;;;;;3.97;2.10;;;31.00;93.70;;;;;;5016984;28;20424;-79
2022/08/03 10:35:29;;;;;;;2.33;2.07;;;31.20;93.70;;;;;;4996705;28;20408;-78
2022/08/03 10:38:03;;;;;;;2.03;1.93;;;31.20;92.20;;;;;;4992605;28;20481;-79
2022/08/03 10:40:36;;;;;;;2.00;1.80;;;31.30;90.70;;;;;;5009733;28;20463;-78
2022/08/03 10:43:12;;;;;;;2.07;1.97;;;31.40;90.20;;;;;;4975488;28;20478;-78
2022/08/03 10:45:42;;;;;;;2.17;1.50;;;31.50;85.70;;;;;;5009953;28;20447;-78
2022/08/03 10:48:09;;;;;;;2.60;2.07;;;31.60;87.30;;;;;;5014955;28;20475;-79
2022/08/03 10:50:35;;;;;;;2.30;2.10;;;31.60;88.40;;;;;;4996540;28;20416;-79
2022/08/03 10:53:06;;;;;;;2.40;1.80;;;31.70;85.60;;;;;;4997519;28;20412;-78
2022/08/03 10:58:37;;;;;;;2.83;1.77;;;31.90;83.70;;;;;;5015202;28;20459;-79
2022/08/03 11:01:07;;;;;;;2.00;1.90;;;31.90;80.80;;;;;;4996504;28;20420;-79
2022/08/03 11:03:53;;;;;;;3.43;2.07;;;32.00;82.70;;;;;;4997016;28;20420;-79
2022/08/03 11:06:23;;;;;;;2.10;1.87;;;32.10;85.50;;;;;;4999677;28;20454;-79
2022/08/03 11:09:09;;;;;;;4.93;1.67;;;32.10;81.00;;;;;;5012915;28;20467;-78
2022/08/03 11:11:43;;;;;;;2.50;1.87;;;32.10;80.20;;;;;;5012670;28;20431;-79
2022/08/03 11:14:13;;;;;;;8.83;2.00;;;32.20;82.70;;;;;;4995665;28;20432;-79
2022/08/03 11:16:48;;;;;;;2.73;1.87;;;32.30;81.00;;;;;;4995655;28;21129;-79
2022/08/03 11:19:22;;;;;;;3.53;1.67;;;32.40;82.50;;;;;;4995809;28;20486;-79
2022/08/03 11:21:51;;;;;;;1.87;1.77;;;32.50;81.60;;;;;;4995024;28;20525;-79
2022/08/03 11:24:35;;;;;;;1.73;1.63;;;32.50;79.70;;;;;;4995329;28;20455;-79
2022/08/03 11:27:13;;;;;;;1.60;1.50;;;32.60;79.30;;;;;;4994383;28;20503;-78
2022/08/03 11:30:04;;;;;;;4.00;1.70;;;32.50;79.80;;;;;;4995204;28;20531;-79
2022/08/03 11:32:36;;;;;;;1.63;1.53;;;32.60;78.10;;;;;;4995130;28;20438;-79
2022/08/03 11:35:11;;;;;;;2.07;1.30;;;32.70;79.40;;;;;;5012935;28;20420;-79
2022/08/03 11:37:59;;;;;;;3.67;1.83;;;32.80;78.00;;;;;;4995449;28;20509;-79
2022/08/03 11:40:48;;;;;;;2.50;1.67;;;32.90;75.60;;;;;;5012451;28;20443;-79
2022/08/03 11:43:29;;;;;;;2.70;1.40;;;32.80;74.40;;;;;;5013262;28;20475;-80
2022/08/03 11:46:05;;;;;;;5.50;1.67;;;32.80;72.10;;;;;;5012701;28;20447;-79
2022/08/03 11:48:39;;;;;;;3.20;1.67;;;32.70;74.90;;;;;;5011945;28;20470;-79
2022/08/03 11:51:22;;;;;;;3.07;1.83;;;32.80;75.60;;;;;;5012187;28;20412;-79
2022/08/03 11:53:59;;;;;;;2.77;1.47;;;32.90;74.40;;;;;;5012753;28;20408;-78
2022/08/03 11:56:25;;;;;;;5.63;1.73;;;32.90;74.20;;;;;;5011839;28;20415;-79
2022/08/03 11:58:54;;;;;;;2.77;1.60;;;33.00;73.80;;;;;;4977873;28;20498;-79
2022/08/03 12:01:21;;;;;;;1.63;1.53;;;33.00;73.10;;;;;;4993657;28;20448;-78
2022/08/03 12:03:47;;;;;;;3.73;1.70;;;33.10;71.40;;;;;;4994791;28;20451;-79
2022/08/03 12:06:15;;;;;;;2.00;1.90;;;33.10;73.20;;;;;;4995035;28;20448;-79
2022/08/03 12:08:42;;;;;;;3.00;1.67;;;33.10;73.40;;;;;;5012034;28;20864;-78
2022/08/03 12:11:10;;;;;;;2.17;2.07;;;33.10;68.90;;;;;;5011243;28;20432;-79
2022/08/03 12:13:48;;;;;;;1.60;1.50;;;33.10;70.90;;;;;;4976806;28;20878;-79
2022/08/03 12:16:24;;;;;;;2.40;1.63;;;33.20;71.50;;;;;;5009479;28;20423;-79
2022/08/03 12:18:59;;;;;;;1.73;1.63;;;33.20;71.60;;;;;;5009953;28;20435;-79
2022/08/03 12:21:26;;;;;;;2.60;1.53;;;33.30;70.90;;;;;;4991248;28;20984;-79
2022/08/03 12:23:58;;;;;;;2.60;1.77;;;33.30;73.00;;;;;;4991091;28;20462;-79
2022/08/03 12:26:25;;;;;;;2.07;1.60;;;33.30;70.50;;;;;;5008587;28;20535;-79
2022/08/03 12:28:50;;;;;;;4.67;1.67;;;33.30;69.20;;;;;;5009391;28;20517;-79
2022/08/03 12:31:16;;;;;;;1.90;1.80;;;33.00;66.80;;;;;;4994601;28;20424;-79
2022/08/03 12:34:02;;;;;;;1.50;1.40;;;32.90;70.10;;;;;;4978586;28;20189;-79
2022/08/03 12:36:30;;;;;;;1.60;1.50;;;33.10;71.80;;;;;;5018885;28;20191;-79
2022/08/03 12:39:02;;;;;;;2.50;1.83;;;33.10;67.70;;;;;;5018150;28;20436;-79
2022/08/03 12:41:33;;;;;;;2.70;1.60;;;33.10;67.50;;;;;;4999656;28;20491;-79
2022/08/03 12:44:02;;;;;;;3.40;1.60;;;33.10;69.10;;;;;;5000442;28;20483;-79
2022/08/03 12:46:39;;;;;;;4.13;1.83;;;33.10;67.60;;;;;;5018645;28;20416;-79
2022/08/03 12:49:17;;;;;;;5.30;1.83;;;33.30;70.30;;;;;;4984585;28;20443;-80
2022/08/03 12:51:42;;;;;;;1.70;1.60;;;33.30;71.00;;;;;;5021428;28;21086;-79
2022/08/03 12:54:15;;;;;;;5.60;1.70;;;33.40;70.70;;;;;;5020768;28;20432;-80
2022/08/03 12:56:58;;;;;;;1.80;1.70;;;33.40;67.00;;;;;;5020599;28;20197;-79
2022/08/03 12:59:30;;;;;;;2.03;1.57;;;33.30;64.50;;;;;;5005451;28;20483;-80
2022/08/03 13:01:55;;;;;;;1.83;1.73;;;33.20;65.10;;;;;;5021802;28;20498;-79
2022/08/03 13:04:33;;;;;;;2.03;1.93;;;33.30;67.70;;;;;;5021688;28;20509;-80
2022/08/03 13:07:07;;;;;;;1.60;1.50;;;33.40;69.20;;;;;;5019520;28;20196;-79